createdAt,value
2022-09-28T00:00:21.837Z,0.20
2022-09-28T00:03:23.605Z,0.43
2022-09-28T00:06:27.098Z,0.10
2022-09-28T00:09:28.943Z,0.15
2022-09-28T00:12:31.802Z,0.30
2022-09-28T00:15:33.875Z,0.10
2022-09-28T00:18:36.402Z,0.13
2022-09-28T00:21:39.980Z,0.10
2022-09-28T00:24:41.801Z,0.20
2022-09-28T00:27:44.115Z,0.55
2022-09-28T00:30:46.313Z,0.20
2022-09-28T00:33:53.452Z,0.20
2022-09-28T00:36:55.281Z,0.28
2022-09-28T00:39:57.123Z,0.30
2022-09-28T00:42:59.388Z,0.10
2022-09-28T00:46:10.962Z,0.32
2022-09-28T00:49:16.299Z,0.43
2022-09-28T00:52:55.148Z,0.20
2022-09-28T00:56:07.590Z,0.13
2022-09-28T00:59:09.687Z,0.10
2022-09-28T01:02:12.422Z,0.15
2022-09-28T01:05:15.069Z,0.17
2022-09-28T01:08:18.281Z,0.20
2022-09-28T01:11:20.364Z,0.10
2022-09-28T01:14:25.871Z,0.28
2022-09-28T01:17:45.084Z,0.15
2022-09-28T01:21:11.160Z,0.30
2022-09-28T01:24:13.013Z,0.30
2022-09-28T01:27:29.940Z,0.17
2022-09-28T01:30:37.652Z,0.35
2022-09-28T01:33:52.248Z,0.10
2022-09-28T01:36:56.834Z,0.15
2022-09-28T01:39:59.069Z,0.35
2022-09-28T01:43:11.669Z,0.10
2022-09-28T01:46:20.830Z,0.20
2022-09-28T01:49:27.667Z,0.10
2022-09-28T01:52:41.895Z,0.10
2022-09-28T01:55:48.190Z,0.20
2022-09-28T01:58:59.618Z,0.65
2022-09-28T02:02:08.418Z,0.25
2022-09-28T02:05:22.464Z,0.10
2022-09-28T02:08:34.523Z,0.10
2022-09-28T02:11:38.487Z,0.15
2022-09-28T02:14:41.953Z,0.22
2022-09-28T02:17:43.896Z,0.20
2022-09-28T02:20:53.337Z,0.15
2022-09-28T02:24:03.360Z,0.28
2022-09-28T02:27:16.443Z,0.50
2022-09-28T02:30:18.442Z,0.60
2022-09-28T02:33:23.789Z,0.70
2022-09-28T02:36:26.810Z,0.60
2022-09-28T02:39:28.989Z,0.63
2022-09-28T02:42:40.336Z,0.47
2022-09-28T02:46:06.873Z,0.60
2022-09-28T02:50:00.315Z,0.30
2022-09-28T02:53:17.137Z,0.40
2022-09-28T02:56:41.228Z,0.40
2022-09-28T03:00:05.722Z,0.35
2022-09-28T03:03:19.293Z,0.30
2022-09-28T03:06:46.480Z,0.75
2022-09-28T03:09:59.527Z,0.50
2022-09-28T03:13:02.996Z,0.70
2022-09-28T03:16:08.163Z,0.70
2022-09-28T03:19:12.791Z,0.55
2022-09-28T03:22:14.456Z,0.80
2022-09-28T03:25:16.491Z,0.45
2022-09-28T03:28:21.496Z,0.52
2022-09-28T03:31:24.585Z,0.47
2022-09-28T03:34:26.794Z,0.20
2022-09-28T03:37:29.110Z,0.43
2022-09-28T03:40:31.491Z,0.60
2022-09-28T03:43:33.431Z,0.73
2022-09-28T03:46:37.707Z,0.80
2022-09-28T03:49:43.886Z,0.70
2022-09-28T03:52:46.242Z,0.60
2022-09-28T03:55:48.827Z,0.63
2022-09-28T03:58:50.609Z,0.28
2022-09-28T04:01:52.951Z,0.40
2022-09-28T04:04:57.259Z,0.52
2022-09-28T04:07:59.498Z,0.60
2022-09-28T04:11:02.669Z,0.50
2022-09-28T04:14:04.869Z,1.02
2022-09-28T04:17:07.472Z,0.95
2022-09-28T04:20:10.014Z,1.40
2022-09-28T04:23:16.015Z,1.10
2022-09-28T04:26:24.300Z,1.27
2022-09-28T04:29:26.393Z,0.80
2022-09-28T04:32:31.066Z,1.40
2022-09-28T04:35:33.613Z,1.33
2022-09-28T04:38:52.237Z,0.93
2022-09-28T04:41:56.613Z,0.52
2022-09-28T04:45:00.098Z,0.80
2022-09-28T04:48:07.799Z,0.75
2022-09-28T04:51:40.155Z,0.47
2022-09-28T04:54:43.795Z,0.82
2022-09-28T04:57:46.013Z,0.68
2022-09-28T05:00:50.304Z,1.05
2022-09-28T05:04:12.278Z,0.45
2022-09-28T05:07:37.472Z,0.55
2022-09-28T05:10:44.438Z,0.90
2022-09-28T05:13:46.486Z,0.32
2022-09-28T05:16:51.510Z,0.80
2022-09-28T05:20:04.015Z,1.05
2022-09-28T05:23:09.880Z,0.93
2022-09-28T05:26:12.724Z,0.98
2022-09-28T05:29:14.782Z,0.60
2022-09-28T05:32:35.881Z,0.70
2022-09-28T05:35:52.515Z,1.40
2022-09-28T05:38:57.005Z,1.42
2022-09-28T05:42:00.106Z,0.85
2022-09-28T05:45:07.876Z,1.27
2022-09-28T05:48:11.281Z,1.27
2022-09-28T05:51:13.804Z,0.90
2022-09-28T05:54:20.243Z,1.33
2022-09-28T05:57:26.495Z,1.17
2022-09-28T06:00:30.004Z,1.77
2022-09-28T06:03:32.821Z,1.48
2022-09-28T06:06:36.810Z,1.77
2022-09-28T06:09:39.209Z,1.15
2022-09-28T06:12:55.635Z,1.27
2022-09-28T06:15:57.970Z,1.48
2022-09-28T06:19:02.304Z,1.25
2022-09-28T06:22:13.821Z,1.05
2022-09-28T06:25:30.378Z,1.30
2022-09-28T06:28:33.516Z,2.50
2022-09-28T06:31:35.735Z,3.10
2022-09-28T06:34:38.562Z,2.03
2022-09-28T06:37:41.437Z,1.77
2022-09-28T06:40:43.510Z,2.55
2022-09-28T06:43:48.147Z,1.95
2022-09-28T06:47:08.782Z,1.90
2022-09-28T06:50:33.116Z,2.17
2022-09-28T06:54:00.983Z,1.08
2022-09-28T06:57:14.282Z,0.95
2022-09-28T07:00:17.966Z,1.13
2022-09-28T07:03:23.099Z,0.90
2022-09-28T07:06:51.411Z,1.42
2022-09-28T07:10:13.322Z,1.17
2022-09-28T07:13:49.458Z,1.08
2022-09-28T07:17:12.450Z,1.80
2022-09-28T07:20:20.504Z,1.08
2022-09-28T07:23:30.965Z,1.02
2022-09-28T07:27:06.266Z,1.00
2022-09-28T07:30:34.378Z,0.68
2022-09-28T07:33:56.466Z,1.63
2022-09-28T07:37:05.383Z,0.95
2022-09-28T07:40:28.111Z,1.45
2022-09-28T07:43:30.463Z,0.98
2022-09-28T07:46:38.186Z,0.80
2022-09-28T07:49:46.915Z,1.52
2022-09-28T07:52:52.272Z,0.90
2022-09-28T07:56:09.243Z,1.10
2022-09-28T07:59:32.179Z,0.70
2022-09-28T08:03:13.849Z,0.47
2022-09-28T08:06:17.422Z,0.70
2022-09-28T08:09:20.102Z,0.80
2022-09-28T08:12:41.586Z,0.57
2022-09-28T08:16:07.689Z,0.73
2022-09-28T08:19:15.435Z,0.80
2022-09-28T08:22:19.406Z,0.60
2022-09-28T08:25:24.945Z,0.77
2022-09-28T08:28:27.375Z,0.57
2022-09-28T08:31:33.248Z,0.98
2022-09-28T08:34:49.110Z,0.70
2022-09-28T08:37:59.501Z,1.05
2022-09-28T08:41:41.439Z,0.90
2022-09-28T08:44:58.127Z,0.93
2022-09-28T08:48:42.034Z,0.80
2022-09-28T08:52:15.201Z,0.82
2022-09-28T08:55:36.678Z,0.88
2022-09-28T08:58:44.216Z,0.80
2022-09-28T09:02:03.684Z,1.05
2022-09-28T09:05:15.448Z,0.80
2022-09-28T09:08:38.135Z,1.00
2022-09-28T09:12:02.050Z,0.80
2022-09-28T09:15:34.061Z,0.68
2022-09-28T09:18:41.863Z,0.52
2022-09-28T09:22:18.842Z,0.60
2022-09-28T09:25:39.774Z,0.57
2022-09-28T09:29:22.795Z,0.60
2022-09-28T09:32:43.963Z,0.52
2022-09-28T09:39:29.368Z,0.65
2022-09-28T09:43:01.748Z,0.60
2022-09-28T09:46:24.541Z,0.82
2022-09-28T09:50:12.031Z,0.40
2022-09-28T09:53:38.226Z,0.63
2022-09-28T09:57:07.121Z,0.85
2022-09-28T10:00:33.199Z,0.47
2022-09-28T10:03:48.999Z,0.60
2022-09-28T10:07:02.187Z,0.30
2022-09-28T10:10:11.175Z,0.32
2022-09-28T10:13:33.535Z,0.30
2022-09-28T10:16:39.143Z,0.40
2022-09-28T10:19:47.099Z,0.30
2022-09-28T10:23:17.772Z,0.20
2022-09-28T10:26:25.446Z,0.30
2022-09-28T10:29:30.536Z,0.22
2022-09-28T10:32:50.393Z,0.30
2022-09-28T10:36:07.454Z,0.30
2022-09-28T10:39:50.844Z,0.40
2022-09-28T10:43:00.575Z,0.35
2022-09-28T10:46:07.166Z,0.30
2022-09-28T10:49:17.184Z,0.45
2022-09-28T10:52:34.585Z,0.55
2022-09-28T10:55:37.235Z,0.30
2022-09-28T10:58:42.488Z,0.50
2022-09-28T11:02:02.918Z,0.50
2022-09-28T11:05:07.252Z,0.40
2022-09-28T11:08:26.109Z,0.60
2022-09-28T11:11:31.813Z,0.70
2022-09-28T11:14:44.563Z,0.55
2022-09-28T11:17:53.014Z,0.68
2022-09-28T11:21:11.701Z,0.63
2022-09-28T11:24:25.271Z,0.40
2022-09-28T11:27:31.292Z,0.70
2022-09-28T11:30:48.564Z,0.45
2022-09-28T11:34:58.717Z,0.50
2022-09-28T11:38:17.673Z,0.40
2022-09-28T11:41:41.099Z,0.50
2022-09-28T11:44:49.673Z,0.63
2022-09-28T11:47:58.129Z,0.50
2022-09-28T11:51:09.721Z,0.70
2022-09-28T11:54:34.195Z,0.57
2022-09-28T11:57:39.349Z,0.73
2022-09-28T12:00:47.488Z,0.50
2022-09-28T12:04:01.409Z,0.38
2022-09-28T12:07:09.438Z,0.30
2022-09-28T12:10:22.958Z,0.50
2022-09-28T12:13:28.083Z,0.60
2022-09-28T12:17:05.344Z,0.38
2022-09-28T12:20:31.371Z,0.40
2022-09-28T12:23:37.714Z,0.40
2022-09-28T12:26:44.063Z,0.50
2022-09-28T12:30:21.124Z,0.38
2022-09-28T12:33:23.390Z,0.40
2022-09-28T12:36:48.022Z,0.40
2022-09-28T12:40:20.407Z,0.30
2022-09-28T12:43:33.718Z,0.30
2022-09-28T12:46:42.505Z,0.40
2022-09-28T12:50:37.466Z,0.50
2022-09-28T12:53:27.629Z,0.73
2022-09-28T12:56:42.644Z,0.88
2022-09-28T13:00:03.242Z,0.40
2022-09-28T13:03:08.495Z,0.30
2022-09-28T13:06:47.612Z,0.20
2022-09-28T13:10:14.127Z,0.30
2022-09-28T13:13:45.248Z,0.20
2022-09-28T13:17:00.632Z,0.30
2022-09-28T13:20:20.440Z,0.30
2022-09-28T13:23:35.924Z,0.30
2022-09-28T13:26:41.674Z,0.30
2022-09-28T13:29:44.137Z,0.20
2022-09-28T13:32:49.400Z,0.55
2022-09-28T13:35:52.112Z,0.40
2022-09-28T13:39:04.720Z,0.30
2022-09-28T13:42:08.543Z,0.40
2022-09-28T13:45:14.043Z,0.30
2022-09-28T13:48:54.080Z,0.20
2022-09-28T13:52:15.245Z,0.20
2022-09-28T13:55:39.563Z,0.40
2022-09-28T13:58:48.321Z,0.30
2022-09-28T14:02:25.994Z,0.40
2022-09-28T14:05:46.839Z,0.20
2022-09-28T14:09:07.386Z,0.50
2022-09-28T14:12:38.969Z,0.30
2022-09-28T14:15:45.314Z,0.30
2022-09-28T14:19:07.521Z,0.20
2022-09-28T14:22:37.707Z,0.50
2022-09-28T14:25:45.603Z,0.60
2022-09-28T14:28:57.607Z,0.40
2022-09-28T14:32:06.313Z,0.28
2022-09-28T14:35:36.971Z,0.30
2022-09-28T14:39:05.578Z,0.30
2022-09-28T14:42:10.875Z,0.32
2022-09-28T14:45:12.946Z,0.70
2022-09-28T14:48:20.059Z,0.80
2022-09-28T14:51:26.878Z,0.55
2022-09-28T14:54:49.836Z,0.40
2022-09-28T14:57:55.606Z,0.50
2022-09-28T15:01:03.195Z,0.73
2022-09-28T15:04:08.877Z,1.30
2022-09-28T15:07:19.937Z,1.13
2022-09-28T15:10:28.561Z,1.05
2022-09-28T15:13:30.938Z,0.88
2022-09-28T15:16:34.543Z,0.50
2022-09-28T15:19:57.557Z,0.63
2022-09-28T15:23:00.404Z,0.50
2022-09-28T15:26:04.695Z,0.30
2022-09-28T15:29:17.729Z,0.40
2022-09-28T15:32:24.509Z,0.90
2022-09-28T15:35:28.636Z,1.17
2022-09-28T15:38:34.469Z,0.60
2022-09-28T15:41:37.312Z,2.67
2022-09-28T15:44:40.123Z,0.75
2022-09-28T15:47:46.113Z,1.25
2022-09-28T15:51:06.261Z,0.63
2022-09-28T15:54:19.740Z,0.40
2022-09-28T15:57:37.099Z,0.43
2022-09-28T16:00:40.493Z,0.30
2022-09-28T16:03:42.759Z,0.65
2022-09-28T16:06:44.936Z,0.50
2022-09-28T16:09:59.002Z,0.65
2022-09-28T16:13:17.506Z,0.75
2022-09-28T16:16:46.706Z,0.60
2022-09-28T16:19:49.411Z,1.27
2022-09-28T16:22:53.847Z,3.72
2022-09-28T16:26:00.634Z,1.35
2022-09-28T16:29:43.070Z,1.58
2022-09-28T16:32:54.991Z,1.30
2022-09-28T16:36:05.925Z,0.88
2022-09-28T16:39:08.637Z,1.45
2022-09-28T16:42:12.061Z,1.30
2022-09-28T16:45:23.582Z,1.90
2022-09-28T16:48:28.216Z,1.92
2022-09-28T16:51:31.041Z,6.18
2022-09-28T16:54:51.660Z,2.38
2022-09-28T16:57:54.350Z,7.47
2022-09-28T17:00:56.912Z,8.18
2022-09-28T17:03:59.509Z,4.30
2022-09-28T17:07:02.113Z,2.40
2022-09-28T17:10:12.783Z,2.00
2022-09-28T17:13:15.958Z,1.17
2022-09-28T17:16:42.675Z,1.30
2022-09-28T17:19:45.830Z,1.03
2022-09-28T17:22:48.301Z,1.38
2022-09-28T17:25:50.952Z,5.93
2022-09-28T17:28:54.307Z,3.10
2022-09-28T17:31:58.202Z,3.17
2022-09-28T17:35:23.065Z,3.35
2022-09-28T17:38:22.955Z,3.83
2022-09-28T17:41:25.369Z,4.70
2022-09-28T17:44:27.760Z,3.00
2022-09-28T17:47:34.321Z,2.10
2022-09-28T17:50:46.387Z,0.63
2022-09-28T17:53:49.977Z,0.90
2022-09-28T17:56:53.748Z,0.90
2022-09-28T17:59:56.626Z,0.73
2022-09-28T18:02:59.583Z,0.65
2022-09-28T18:06:08.273Z,0.80
2022-09-28T18:09:15.158Z,3.10
2022-09-28T18:12:18.104Z,11.30
2022-09-28T18:15:20.954Z,4.07
2022-09-28T18:18:25.771Z,3.42
2022-09-28T18:21:31.983Z,3.85
2022-09-28T18:24:34.563Z,2.83
2022-09-28T18:27:38.315Z,2.90
2022-09-28T18:30:42.810Z,5.03
2022-09-28T18:33:46.233Z,11.95
2022-09-28T18:36:49.270Z,14.52
2022-09-28T18:39:51.557Z,9.50
2022-09-28T18:42:53.765Z,7.68
2022-09-28T18:45:56.873Z,9.30
2022-09-28T18:48:59.628Z,12.48
2022-09-28T18:52:03.363Z,11.98
2022-09-28T18:55:08.542Z,11.65
2022-09-28T18:58:13.229Z,8.10
2022-09-28T19:01:29.973Z,9.05
2022-09-28T19:04:33.817Z,4.28
2022-09-28T19:07:36.451Z,6.57
2022-09-28T19:10:38.965Z,8.63
2022-09-28T19:13:41.107Z,6.45
2022-09-28T19:16:44.718Z,5.53
2022-09-28T19:19:47.585Z,5.22
2022-09-28T19:22:50.809Z,4.60
2022-09-28T19:25:53.173Z,6.10
2022-09-28T19:28:58.600Z,6.05
2022-09-28T19:32:01.448Z,8.70
2022-09-28T19:35:04.547Z,10.43
2022-09-28T19:38:07.016Z,8.35
2022-09-28T19:41:13.796Z,6.05
2022-09-28T19:44:27.946Z,4.82
2022-09-28T19:47:30.408Z,4.03
2022-09-28T19:50:32.410Z,4.43
2022-09-28T19:53:37.007Z,5.35
2022-09-28T19:56:38.934Z,5.53
2022-09-28T19:59:40.953Z,4.30
2022-09-28T20:02:43.579Z,3.40
2022-09-28T20:05:48.087Z,3.30
2022-09-28T20:08:51.212Z,2.75
2022-09-28T20:11:53.326Z,2.47
2022-09-28T20:14:55.390Z,2.40
2022-09-28T20:17:58.952Z,6.05
2022-09-28T20:21:06.286Z,14.07
2022-09-28T20:24:10.924Z,3.63
2022-09-28T20:27:13.212Z,6.15
2022-09-28T20:30:15.376Z,10.77
2022-09-28T20:33:27.494Z,8.38
2022-09-28T20:36:34.204Z,9.00
2022-09-28T20:39:36.188Z,14.75
2022-09-28T20:42:38.368Z,9.90
2022-09-28T20:45:40.498Z,10.32
2022-09-28T20:48:42.457Z,10.88
2022-09-28T20:51:45.258Z,8.43
2022-09-28T20:54:47.619Z,6.15
2022-09-28T20:57:51.029Z,5.80
2022-09-28T21:00:53.184Z,3.55
2022-09-28T21:04:01.133Z,25.17
2022-09-28T21:07:03.047Z,17.00
2022-09-28T21:10:05.994Z,20.02
2022-09-28T21:13:08.939Z,5.80
2022-09-28T21:16:12.662Z,4.57
2022-09-28T21:19:14.917Z,3.60
2022-09-28T21:22:16.672Z,1.95
2022-09-28T21:25:19.062Z,1.88
2022-09-28T21:28:21.290Z,2.55
2022-09-28T21:31:28.488Z,3.95
2022-09-28T21:34:31.377Z,4.20
2022-09-28T21:37:33.595Z,4.70
2022-09-28T21:40:36.236Z,2.83
2022-09-28T21:43:39.451Z,3.15
2022-09-28T21:46:42.446Z,3.33
2022-09-28T21:49:44.296Z,2.42
2022-09-28T21:52:46.715Z,1.80
2022-09-28T21:55:53.192Z,1.92
2022-09-28T21:58:55.463Z,2.85
2022-09-28T22:01:57.325Z,1.70
2022-09-28T22:04:59.399Z,1.63
2022-09-28T22:08:02.006Z,1.33
2022-09-28T22:11:08.409Z,1.50
2022-09-28T22:14:11.017Z,1.50
2022-09-28T22:17:12.754Z,1.50
2022-09-28T22:20:15.047Z,1.63
2022-09-28T22:23:17.699Z,1.67
2022-09-28T22:26:23.559Z,1.33
2022-09-28T22:29:26.437Z,1.10
2022-09-28T22:32:28.225Z,1.40
2022-09-28T22:35:30.589Z,5.30
2022-09-28T22:38:32.847Z,3.10
2022-09-28T22:41:35.561Z,1.50
2022-09-28T22:44:48.262Z,1.38
2022-09-28T22:47:50.566Z,1.52
2022-09-28T22:50:52.390Z,1.25
2022-09-28T22:53:54.973Z,1.23
2022-09-28T22:56:56.726Z,1.48
2022-09-28T22:59:58.520Z,1.38
2022-09-28T23:03:00.304Z,1.58
2022-09-28T23:06:02.341Z,0.98
2022-09-28T23:09:04.861Z,0.65
2022-09-28T23:12:06.818Z,0.95
2022-09-28T23:15:09.411Z,0.50
2022-09-28T23:18:11.715Z,0.47
2022-09-28T23:21:15.590Z,1.10
2022-09-28T23:24:18.039Z,0.50
2022-09-28T23:27:20.583Z,0.57
2022-09-28T23:30:24.986Z,0.40
2022-09-28T23:33:27.370Z,0.55
2022-09-28T23:36:29.055Z,0.65
2022-09-28T23:39:31.409Z,0.55
2022-09-28T23:42:34.772Z,0.32
2022-09-28T23:45:37.216Z,0.50
2022-09-28T23:48:39.017Z,0.28
2022-09-28T23:51:40.751Z,0.40
2022-09-28T23:54:42.819Z,0.40
2022-09-28T23:57:44.709Z,0.60
